Time;durP1;ratioP1;P1;durP2;ratioP2;P2;SDS_P1;SDS_P2;PMS_P1;PMS_P2;Temp;Humidity;BMP_temperature;BMP_pressure;BME280_temperature;BME280_humidity;BME280_pressure;Samples;Min_cycle;Max_cycle;Signal;HPM_P1;HPM_P2
2022/04/05 00:00:24;;;;;;;25.35;10.02;;;;;;;8.90;100.00;100712.03;5076662;28;20107;-77
2022/04/05 00:02:52;;;;;;;25.23;9.45;;;;;;;8.85;100.00;100724.13;5076433;28;20128;-77
2022/04/05 00:05:21;;;;;;;28.17;10.93;;;;;;;8.79;100.00;100730.13;5075372;28;20354;-77
2022/04/05 00:07:52;;;;;;;24.58;10.90;;;;;;;8.75;100.00;100720.47;5076486;28;20484;-77
2022/04/05 00:10:22;;;;;;;25.50;9.13;;;;;;;8.72;100.00;100724.75;5075266;28;20082;-77
2022/04/05 00:12:50;;;;;;;25.67;11.15;;;;;;;8.70;100.00;100718.63;5074575;28;20078;-77
2022/04/05 00:15:17;;;;;;;28.90;9.93;;;;;;;8.67;100.00;100731.63;5074685;28;20049;-77
2022/04/05 00:17:45;;;;;;;25.80;10.15;;;;;;;8.63;100.00;100725.47;5074515;28;20094;-77
2022/04/05 00:20:13;;;;;;;29.10;11.32;;;;;;;8.59;100.00;100726.25;5074585;28;20094;-78
2022/04/05 00:22:41;;;;;;;24.83;10.05;;;;;;;8.59;100.00;100726.25;5074494;28;20467;-78
2022/04/05 00:25:13;;;;;;;26.20;9.82;;;;;;;8.61;100.00;100728.91;5074415;28;20048;-78
2022/04/05 00:27:42;;;;;;;25.75;9.18;;;;;;;8.59;100.00;100726.25;5074380;28;20090;-78
2022/04/05 00:30:11;;;;;;;22.70;9.35;;;;;;;8.60;100.00;100728.00;5074160;28;20052;-78
2022/04/05 00:32:40;;;;;;;20.75;8.75;;;;;;;8.59;100.00;100736.72;5074090;28;20076;-78
2022/04/05 00:35:09;;;;;;;17.42;7.93;;;;;;;8.56;100.00;100739.25;5074296;28;20467;-78
2022/04/05 00:37:37;;;;;;;18.35;8.77;;;;;;;8.55;100.00;100724.44;5073930;28;20526;-77
2022/04/05 00:40:07;;;;;;;19.88;7.88;;;;;;;8.53;100.00;100731.34;5073754;28;20068;-78
2022/04/05 00:42:37;;;;;;;14.48;6.88;;;;;;;8.51;100.00;100723.47;5073915;28;20101;-77
2022/04/05 00:45:09;;;;;;;19.02;7.60;;;;;;;8.51;100.00;100720.00;5073803;28;20461;-78
2022/04/05 00:47:38;;;;;;;19.40;8.45;;;;;;;8.47;100.00;100726.00;5073981;28;20052;-77
2022/04/05 00:50:07;;;;;;;19.40;8.38;;;;;;;8.48;100.00;100725.16;5073749;28;20056;-77
2022/04/05 00:52:34;;;;;;;19.00;9.63;;;;;;;8.44;100.00;100724.22;5073848;28;20041;-78
2022/04/05 00:55:03;;;;;;;23.83;8.40;;;;;;;8.45;100.00;100722.47;5073955;28;20037;-78
2022/04/05 00:57:32;;;;;;;21.52;9.32;;;;;;;8.42;100.00;100725.91;5073835;28;20128;-78
2022/04/05 01:00:05;;;;;;;20.52;8.15;;;;;;;8.40;100.00;100722.38;5073856;28;20143;-78
2022/04/05 01:02:37;;;;;;;19.38;9.27;;;;;;;8.35;100.00;100724.03;5073748;28;20045;-75
2022/04/05 01:05:07;;;;;;;16.80;8.52;;;;;;;8.35;100.00;100726.63;5073752;28;20393;-75
2022/04/05 01:07:40;;;;;;;24.45;10.10;;;;;;;8.33;100.00;100730.06;5073590;28;20072;-75
2022/04/05 01:10:10;;;;;;;23.83;9.48;;;;;;;8.33;100.00;100732.69;5073155;28;20076;-75
2022/04/05 01:12:39;;;;;;;22.58;9.02;;;;;;;8.31;100.00;100729.16;5073476;28;20071;-75
2022/04/05 01:15:08;;;;;;;21.00;8.68;;;;;;;8.30;100.00;100732.63;5073199;28;20044;-75
2022/04/05 01:17:37;;;;;;;19.10;8.57;;;;;;;8.33;100.00;100737.91;5073508;28;20040;-75
2022/04/05 01:20:06;;;;;;;18.75;8.60;;;;;;;8.32;100.00;100730.91;5073084;28;20075;-75
2022/04/05 01:22:34;;;;;;;19.23;8.23;;;;;;;8.28;100.00;100737.81;5073124;28;20044;-75
2022/04/05 01:25:03;;;;;;;19.45;9.55;;;;;;;8.27;100.00;100733.44;5073226;28;20052;-75
2022/04/05 01:27:31;;;;;;;21.45;9.52;;;;;;;8.28;100.00;100742.16;5072943;28;20128;-75
2022/04/05 01:30:00;;;;;;;19.15;9.63;;;;;;;8.28;100.00;100739.56;5072868;28;20052;-75
2022/04/05 01:32:27;;;;;;;20.00;8.65;;;;;;;8.24;100.00;100735.09;5072849;28;20044;-75
2022/04/05 01:34:56;;;;;;;22.92;9.18;;;;;;;8.22;100.00;100739.41;5072928;28;20048;-75
2022/04/05 01:37:24;;;;;;;20.80;8.55;;;;;;;8.19;100.00;100733.28;5072626;28;20103;-75
2022/04/05 01:39:52;;;;;;;18.30;9.00;;;;;;;8.22;100.00;100728.97;5072724;28;20040;-75
2022/04/05 01:42:21;;;;;;;19.02;9.20;;;;;;;8.19;100.00;100733.28;5072961;28;20053;-75
2022/04/05 01:44:49;;;;;;;17.95;8.98;;;;;;;8.19;100.00;100732.41;5072585;28;20099;-75
2022/04/05 01:47:19;;;;;;;21.45;8.88;;;;;;;8.16;100.00;100730.59;5072316;28;20479;-76
2022/04/05 01:49:48;;;;;;;20.05;9.13;;;;;;;8.16;100.00;100722.75;5072770;28;20165;-76
2022/04/05 01:52:20;;;;;;;18.02;8.18;;;;;;;8.15;100.00;100718.38;5072729;28;20144;-76
2022/04/05 01:54:47;;;;;;;20.65;9.48;;;;;;;8.16;100.00;100724.50;5072386;28;20127;-75
2022/04/05 01:57:16;;;;;;;20.88;8.43;;;;;;;8.12;100.00;100723.53;5072508;28;20044;-75
2022/04/05 01:59:45;;;;;;;20.98;8.23;;;;;;;8.12;100.00;100718.31;5072186;28;20052;-75
2022/04/05 02:02:14;;;;;;;23.42;9.05;;;;;;;8.17;100.00;100721.03;5072283;28;20127;-75
2022/04/05 02:04:42;;;;;;;19.88;9.18;;;;;;;8.13;100.00;100721.81;5072433;28;20032;-76
2022/04/05 02:07:15;;;;;;;18.98;9.52;;;;;;;8.10;100.00;100720.03;5072713;28;20102;-75
2022/04/05 02:09:44;;;;;;;19.95;9.80;;;;;;;8.11;100.00;100721.78;5072282;28;20087;-76
2022/04/05 02:12:12;;;;;;;23.05;9.48;;;;;;;8.12;100.00;100723.53;5072212;28;20440;-75
2022/04/05 02:14:41;;;;;;;23.23;10.65;;;;;;;8.14;100.00;100716.63;5072530;28;20079;-76
2022/04/05 02:17:11;;;;;;;25.77;10.45;;;;;;;8.13;100.00;100720.09;5071939;28;20084;-74
2022/04/05 02:19:40;;;;;;;23.65;10.70;;;;;;;8.14;100.00;100714.00;5072147;28;20055;-77
2022/04/05 02:22:08;;;;;;;19.25;10.05;;;;;;;8.14;100.00;100719.25;5054615;28;20048;-75
2022/04/05 02:24:36;;;;;;;21.30;9.85;;;;;;;8.16;100.00;100720.16;5072004;28;20040;-76
2022/04/05 02:27:04;;;;;;;18.92;10.27;;;;;;;8.16;100.00;100719.28;5071055;28;20057;-74
2022/04/05 02:29:32;;;;;;;20.40;9.98;;;;;;;8.15;100.00;100726.22;5072094;28;20110;-76
2022/04/05 02:32:00;;;;;;;22.45;10.57;;;;;;;8.14;100.00;100719.25;5071933;28;20063;-75
2022/04/05 02:34:29;;;;;;;21.05;9.93;;;;;;;8.17;100.00;100721.91;5071882;28;20048;-76
2022/04/05 02:36:57;;;;;;;21.80;10.98;;;;;;;8.12;100.00;100720.94;5072080;28;20048;-76
2022/04/05 02:39:25;;;;;;;21.90;10.68;;;;;;;8.12;100.00;100717.44;5072070;28;20140;-75
2022/04/05 02:41:52;;;;;;;19.40;9.57;;;;;;;8.11;100.00;100713.94;5072084;28;20168;-76
2022/04/05 02:44:20;;;;;;;18.45;9.55;;;;;;;8.18;100.00;100718.47;5072057;28;20080;-74
2022/04/05 02:46:48;;;;;;;18.38;9.30;;;;;;;8.18;100.00;100723.69;5072069;28;20152;-74
2022/04/05 02:49:16;;;;;;;20.08;9.23;;;;;;;8.20;100.00;100718.50;5071859;28;20059;-74
2022/04/05 02:51:46;;;;;;;22.05;10.30;;;;;;;8.22;100.00;100714.19;5071937;28;20044;-73
2022/04/05 02:54:14;;;;;;;18.73;9.25;;;;;;;8.25;100.00;100714.25;5071809;28;20045;-74
2022/04/05 02:56:42;;;;;;;16.92;9.90;;;;;;;8.25;100.00;100714.25;5072044;28;20067;-73
2022/04/05 02:59:10;;;;;;;19.33;9.65;;;;;;;8.25;100.00;100713.34;5071673;28;20102;-75
2022/04/05 03:01:38;;;;;;;20.65;10.07;;;;;;;8.19;100.00;100708.88;5071803;28;20044;-75
2022/04/05 03:04:06;;;;;;;19.20;9.43;;;;;;;8.22;100.00;100710.69;5071541;28;20060;-75
2022/04/05 03:06:34;;;;;;;22.98;10.63;;;;;;;8.19;100.00;100706.28;5071497;28;20522;-75
2022/04/05 03:09:03;;;;;;;19.90;9.98;;;;;;;8.18;100.00;100712.34;5071796;28;20044;-73
2022/04/05 03:11:31;;;;;;;24.90;10.13;;;;;;;8.17;100.00;100705.38;5071508;28;20095;-75
2022/04/05 03:13:59;;;;;;;22.08;10.23;;;;;;;8.16;100.00;100714.03;5071985;28;20135;-73
2022/04/05 03:16:27;;;;;;;18.23;9.10;;;;;;;8.20;100.00;100716.75;5071320;28;20060;-73
2022/04/05 03:18:55;;;;;;;21.38;9.98;;;;;;;8.19;100.00;100706.28;5071443;28;20052;-73
2022/04/05 03:21:22;;;;;;;19.50;10.27;;;;;;;8.17;100.00;100706.25;5071850;28;20064;-74
2022/04/05 03:23:50;;;;;;;20.42;10.07;;;;;;;8.18;100.00;100705.41;5071164;28;20445;-73
2022/04/05 03:26:19;;;;;;;24.40;9.82;;;;;;;8.19;100.00;100701.03;5071056;28;20075;-74
2022/04/05 03:28:47;;;;;;;22.17;9.63;;;;;;;8.22;100.00;100700.22;5071572;28;20052;-74
2022/04/05 03:31:15;;;;;;;24.15;10.35;;;;;;;8.20;100.00;100695.84;5071515;28;20076;-73
2022/04/05 03:33:43;;;;;;;19.88;10.00;;;;;;;8.20;100.00;100701.09;5071161;28;20091;-78
2022/04/05 03:36:11;;;;;;;20.40;9.27;;;;;;;8.19;100.00;100699.31;5071575;28;20098;-77
2022/04/05 03:38:40;;;;;;;20.48;9.05;;;;;;;8.29;100.00;100699.50;5073029;28;20540;-77
2022/04/05 03:41:08;;;;;;;24.35;10.65;;;;;;;8.22;100.00;100698.50;5075210;28;20044;-79
2022/04/05 03:43:38;;;;;;;23.65;11.05;;;;;;;8.27;100.00;100695.97;5075108;28;20055;-78
2022/04/05 03:46:06;;;;;;;21.67;9.70;;;;;;;8.28;100.00;100697.75;5075214;28;20056;-77
2022/04/05 03:48:34;;;;;;;26.45;10.07;;;;;;;8.29;100.00;100697.78;5075137;28;20048;-78
2022/04/05 03:51:08;;;;;;;20.65;9.75;;;;;;;8.29;100.00;100702.13;5074813;28;20098;-78
2022/04/05 03:53:36;;;;;;;20.48;10.32;;;;;;;8.27;100.00;100698.59;5075048;28;20041;-77
2022/04/05 03:56:04;;;;;;;27.17;11.18;;;;;;;8.25;100.00;100703.78;5075542;28;20427;-77
2022/04/05 03:58:32;;;;;;;23.08;10.63;;;;;;;8.29;100.00;100692.56;5075252;28;20106;-80
2022/04/05 04:01:01;;;;;;;27.23;11.10;;;;;;;8.28;100.00;100698.63;5075352;28;20052;-78
2022/04/05 04:03:29;;;;;;;21.92;9.50;;;;;;;8.28;100.00;100693.41;5075214;28;20052;-79
2022/04/05 04:05:59;;;;;;;21.98;9.40;;;;;;;8.28;100.00;100697.75;5075294;28;20052;-77
2022/04/05 04:08:27;;;;;;;24.00;9.95;;;;;;;8.31;100.00;100695.19;5075064;28;20044;-76
2022/04/05 04:10:55;;;;;;;24.20;9.15;;;;;;;8.32;100.00;100691.72;5075297;28;20067;-78
2022/04/05 04:13:23;;;;;;;24.67;8.68;;;;;;;8.37;100.00;100698.81;5074965;28;20052;-78
2022/04/05 04:15:52;;;;;;;22.00;9.25;;;;;;;8.36;100.00;100696.16;5075189;28;20041;-78
2022/04/05 04:18:22;;;;;;;22.52;9.18;;;;;;;8.37;100.00;100697.94;5075468;28;20479;-79
2022/04/05 04:20:50;;;;;;;27.52;10.35;;;;;;;8.33;100.00;100701.34;5074702;28;20570;-76
2022/04/05 04:23:20;;;;;;;21.63;8.68;;;;;;;8.38;100.00;100687.50;5075158;28;20110;-79
2022/04/05 04:25:49;;;;;;;24.48;9.48;;;;;;;8.37;100.00;100684.88;5075379;28;20438;-78
2022/04/05 04:28:17;;;;;;;23.83;8.75;;;;;;;8.45;100.00;100684.16;5075457;28;20056;-78
2022/04/05 04:30:45;;;;;;;26.05;8.65;;;;;;;8.46;100.00;100688.53;5075176;28;20123;-78
2022/04/05 04:33:14;;;;;;;22.80;9.48;;;;;;;8.44;100.00;100689.34;5074799;28;20052;-80
2022/04/05 04:35:44;;;;;;;21.08;8.68;;;;;;;8.45;100.00;100680.66;5074932;28;20512;-77
2022/04/05 04:38:15;;;;;;;16.63;8.27;;;;;;;8.45;100.00;100685.91;5074730;28;20044;-78
2022/04/05 04:40:46;;;;;;;25.80;8.65;;;;;;;8.47;100.00;100702.50;5075195;28;20105;-78
2022/04/05 04:43:16;;;;;;;24.60;8.32;;;;;;;8.47;100.00;100689.41;5074531;28;20045;-75
2022/04/05 04:45:44;;;;;;;19.35;7.20;;;;;;;8.47;100.00;100687.69;5074442;28;20041;-75
2022/04/05 04:48:13;;;;;;;22.70;7.78;;;;;;;8.43;100.00;100692.81;5074261;28;20055;-76
2022/04/05 04:50:43;;;;;;;22.20;9.25;;;;;;;8.47;100.00;100689.41;5073179;28;20098;-76
2022/04/05 04:53:13;;;;;;;21.70;8.43;;;;;;;8.48;100.00;100692.06;5055978;28;20045;-75
2022/04/05 04:55:41;;;;;;;15.15;6.90;;;;;;;8.47;100.00;100698.13;5074283;28;20040;-75
2022/04/05 04:58:29;;;;;;;19.70;7.65;;;;;;;8.58;100.00;100698.34;5073845;28;20381;-74
2022/04/05 05:00:56;;;;;;;19.42;7.53;;;;;;;8.53;100.00;100698.25;5073975;28;20565;-75
2022/04/05 05:03:25;;;;;;;27.60;8.25;;;;;;;8.62;100.00;100705.41;5074226;28;20154;-75
2022/04/05 05:05:55;;;;;;;19.33;7.60;;;;;;;8.69;100.00;100690.72;5073660;28;20080;-74
2022/04/05 05:08:23;;;;;;;17.13;7.90;;;;;;;8.70;100.00;100692.47;5074229;28;20099;-75
2022/04/05 05:10:51;;;;;;;17.10;7.25;;;;;;;8.76;100.00;100692.59;5073621;28;20463;-75
2022/04/05 05:13:20;;;;;;;27.80;8.10;;;;;;;8.73;100.00;100696.03;5073578;28;20078;-75
2022/04/05 05:15:50;;;;;;;15.68;6.45;;;;;;;8.76;100.00;100697.81;5055540;28;20045;-74
2022/04/05 05:18:18;;;;;;;21.73;6.63;;;;;;;8.74;100.00;100695.16;5073444;28;20044;-82
2022/04/05 05:20:46;;;;;;;21.13;7.30;;;;;;;8.78;100.00;100696.09;5073837;28;20056;-80
2022/04/05 05:23:15;;;;;;;23.50;8.00;;;;;;;8.84;100.00;100697.09;5073370;28;20132;-80
2022/04/05 05:25:43;;;;;;;15.00;6.43;;;;;;;8.84;100.00;100704.06;5073582;28;20075;-81
2022/04/05 05:28:11;;;;;;;14.50;6.85;;;;;;;8.83;100.00;100716.25;5073167;28;20048;-80
2022/04/05 05:30:39;;;;;;;17.17;8.23;;;;;;;8.83;100.00;100700.56;5073236;28;20437;-79
2022/04/05 05:33:07;;;;;;;17.45;7.00;;;;;;;8.82;100.00;100711.88;5072818;28;20049;-81
2022/04/05 05:35:34;;;;;;;15.00;6.60;;;;;;;8.90;100.00;100714.63;5073144;28;20132;-81
2022/04/05 05:38:03;;;;;;;15.10;6.75;;;;;;;8.88;100.00;100712.84;5073414;28;20048;-80
2022/04/05 05:40:32;;;;;;;20.65;7.07;;;;;;;8.90;100.00;100711.13;5073288;28;20049;-80
2022/04/05 05:43:02;;;;;;;15.60;6.57;;;;;;;8.77;100.00;100705.69;5073228;28;20075;-79
2022/04/05 05:45:32;;;;;;;17.02;7.43;;;;;;;8.75;100.00;100711.72;5072615;28;20535;-79
2022/04/05 05:48:00;;;;;;;19.52;7.82;;;;;;;8.78;100.00;100706.56;5072950;28;20052;-80
2022/04/05 05:50:29;;;;;;;18.75;7.43;;;;;;;8.76;100.00;100719.59;5072876;28;20055;-78
2022/04/05 05:52:58;;;;;;;23.15;7.03;;;;;;;8.80;100.00;100716.19;5072492;28;20137;-78
2022/04/05 05:55:27;;;;;;;20.90;7.35;;;;;;;8.85;100.00;100717.16;5073266;28;20135;-79
2022/04/05 05:57:56;;;;;;;17.90;6.38;;;;;;;8.87;100.00;100726.78;5072874;28;20064;-79
2022/04/05 06:00:24;;;;;;;17.90;7.43;;;;;;;8.91;100.00;100728.59;5054917;28;20086;-75
2022/04/05 06:02:56;;;;;;;19.15;7.07;;;;;;;8.88;100.00;100728.53;5072574;28;20064;-76
2022/04/05 06:05:25;;;;;;;17.30;6.80;;;;;;;8.88;100.00;100720.69;5072262;28;20045;-76
2022/04/05 06:07:53;;;;;;;16.98;7.18;;;;;;;8.90;100.00;100717.25;5072689;28;20076;-75
2022/04/05 06:10:22;;;;;;;15.65;6.70;;;;;;;8.89;100.00;100731.19;5072238;28;20045;-75
2022/04/05 06:12:51;;;;;;;18.75;6.47;;;;;;;8.90;100.00;100716.38;5072490;28;20044;-75
2022/04/05 06:15:20;;;;;;;15.10;6.07;;;;;;;8.91;100.00;100728.59;5072618;28;20104;-78
2022/04/05 06:17:50;;;;;;;18.25;6.25;;;;;;;8.93;100.00;100721.66;5072504;28;20132;-74
2022/04/05 06:20:20;;;;;;;15.50;6.80;;;;;;;8.98;100.00;100726.13;5072756;28;20048;-75
2022/04/05 06:22:49;;;;;;;15.18;5.85;;;;;;;8.91;100.00;100733.81;5072439;28;20048;-76
2022/04/05 06:25:19;;;;;;;15.55;5.53;;;;;;;8.97;100.00;100726.97;5072299;28;20083;-76
2022/04/05 06:27:47;;;;;;;12.32;5.75;;;;;;;8.97;100.00;100728.69;5072627;28;20104;-76
2022/04/05 06:30:19;;;;;;;14.02;6.75;;;;;;;9.03;100.00;100734.03;5074016;28;20435;-76
2022/04/05 06:32:48;;;;;;;16.75;5.80;;;;;;;9.01;100.00;100734.00;5072024;28;20083;-74
2022/04/05 06:35:16;;;;;;;16.27;5.45;;;;;;;9.04;100.00;100733.19;5072305;28;20049;-75
2022/04/05 06:37:45;;;;;;;15.18;6.07;;;;;;;9.06;100.00;100739.31;5072002;28;20128;-74
2022/04/05 06:40:16;;;;;;;14.77;6.00;;;;;;;9.13;100.00;100741.19;5071843;28;20055;-75
2022/04/05 06:42:45;;;;;;;16.92;6.28;;;;;;;9.16;100.00;100739.50;5071782;28;20036;-76
2022/04/05 06:45:14;;;;;;;13.70;4.53;;;;;;;9.23;100.00;100743.13;5071752;28;20036;-75
2022/04/05 06:47:43;;;;;;;12.88;5.72;;;;;;;9.23;100.00;100737.00;5073985;28;20044;-74
2022/04/05 06:50:14;;;;;;;12.90;5.72;;;;;;;9.26;100.00;100748.41;5071574;28;20048;-74
2022/04/05 06:52:43;;;;;;;12.35;5.00;;;;;;;9.25;100.00;100746.66;5072018;28;20524;-81
2022/04/05 06:55:12;;;;;;;15.35;5.88;;;;;;;9.29;100.00;100742.34;5072630;28;20048;-78
2022/04/05 06:57:40;;;;;;;14.57;5.60;;;;;;;9.38;100.00;100755.56;5071844;28;20064;-79
2022/04/05 07:00:10;;;;;;;12.70;5.10;;;;;;;9.38;100.00;100747.69;5072101;28;20509;-79
2022/04/05 07:02:39;;;;;;;11.85;5.18;;;;;;;9.39;100.00;100752.97;5072478;28;20044;-79
2022/04/05 07:05:08;;;;;;;10.45;4.82;;;;;;;9.45;100.00;100757.41;5071657;28;20052;-77
2022/04/05 07:07:37;;;;;;;11.68;4.50;;;;;;;9.43;100.00;100751.28;5071612;28;20495;-78
2022/04/05 07:10:06;;;;;;;12.25;5.43;;;;;;;9.46;100.00;100757.44;5071818;28;20481;-78
2022/04/05 07:12:35;;;;;;;9.57;5.00;;;;;;;9.45;100.00;100774.00;5071548;28;20088;-77
2022/04/05 07:15:03;;;;;;;12.65;4.70;;;;;;;9.46;100.00;100761.78;5076163;28;20056;-78
2022/04/05 07:17:32;;;;;;;12.95;5.15;;;;;;;9.46;100.00;100760.06;5076431;28;20516;-79
2022/04/05 07:20:19;;;;;;;13.30;5.05;;;;;;;9.46;100.00;100761.78;5075690;28;20052;-77
2022/04/05 07:22:50;;;;;;;10.25;4.93;;;;;;;9.47;100.00;100766.19;5075816;28;20098;-80
2022/04/05 07:25:20;;;;;;;13.57;5.22;;;;;;;9.48;100.00;100768.81;5075517;28;20055;-76
2022/04/05 07:27:49;;;;;;;14.30;4.55;;;;;;;9.50;100.00;100764.50;5075465;28;20139;-78
2022/04/05 07:30:18;;;;;;;16.85;5.50;;;;;;;9.52;100.00;100761.91;5075349;28;20108;-81
2022/04/05 07:32:48;;;;;;;13.88;5.55;;;;;;;9.55;100.00;100766.31;5076999;28;20135;-78
2022/04/05 07:35:17;;;;;;;10.15;4.55;;;;;;;9.54;100.00;100769.78;5077342;28;20041;-78
2022/04/05 07:37:51;;;;;;;12.05;5.00;;;;;;;9.55;100.00;100761.94;5076772;28;20048;-78
2022/04/05 07:40:20;;;;;;;14.82;4.97;;;;;;;9.51;100.00;100766.25;5075759;28;20044;-77
2022/04/05 07:42:48;;;;;;;12.15;5.43;;;;;;;9.48;100.00;100767.94;5075388;28;20055;-77
2022/04/05 07:45:17;;;;;;;14.77;4.88;;;;;;;9.49;100.00;100772.31;5075187;28;20068;-77
2022/04/05 07:47:45;;;;;;;13.88;4.72;;;;;;;9.50;100.00;100763.59;5075546;28;20048;-77
2022/04/05 07:50:13;;;;;;;13.20;4.45;;;;;;;9.49;100.00;100762.72;5074945;28;20128;-72
2022/04/05 07:52:44;;;;;;;12.73;5.20;;;;;;;9.54;100.00;100770.66;5074867;28;20040;-72
2022/04/05 07:55:15;;;;;;;10.98;4.63;;;;;;;9.52;100.00;100756.66;5075342;28;20074;-73
2022/04/05 07:57:46;;;;;;;12.68;5.25;;;;;;;9.48;100.00;100758.34;5074528;28;20059;-73
2022/04/05 08:00:16;;;;;;;12.70;5.13;;;;;;;9.46;100.00;100762.69;5057355;28;20131;-73
2022/04/05 08:02:44;;;;;;;10.60;4.60;;;;;;;9.50;100.00;100763.59;5074421;28;20130;-71
2022/04/05 08:05:16;;;;;;;12.18;4.95;;;;;;;9.51;100.00;100763.63;5075004;28;20044;-71
2022/04/05 08:07:46;;;;;;;10.70;4.30;;;;;;;9.61;100.00;100759.44;5074657;28;20037;-71
2022/04/05 08:10:16;;;;;;;9.15;5.07;;;;;;;9.68;100.00;100768.25;5056515;28;20124;-73
2022/04/05 08:12:47;;;;;;;11.70;5.47;;;;;;;9.75;100.00;100763.13;5074403;28;20094;-72
2022/04/05 08:15:17;;;;;;;14.43;4.95;;;;;;;9.80;100.00;100768.44;5074733;28;20120;-71
2022/04/05 08:17:45;;;;;;;11.55;5.07;;;;;;;9.87;100.00;100769.41;5074570;28;20048;-71
2022/04/05 08:20:14;;;;;;;11.90;4.68;;;;;;;9.88;100.00;100763.31;5074470;28;20059;-77
2022/04/05 08:22:44;;;;;;;9.57;4.28;;;;;;;9.87;100.00;100770.31;5074064;28;20044;-75
2022/04/05 08:25:15;;;;;;;10.48;5.03;;;;;;;9.79;100.00;100762.34;5072994;28;20090;-76
2022/04/05 08:27:47;;;;;;;10.50;4.70;;;;;;;9.81;100.00;100776.34;5074173;28;20045;-77
2022/04/05 08:30:17;;;;;;;14.45;4.88;;;;;;;9.74;100.00;100768.34;5074085;28;20051;-77
2022/04/05 08:32:48;;;;;;;10.85;4.63;;;;;;;9.75;100.00;100775.34;5074118;28;20097;-71
2022/04/05 08:35:19;;;;;;;11.00;4.40;;;;;;;9.71;100.00;100770.94;5074280;28;20467;-71
2022/04/05 08:37:50;;;;;;;12.55;4.93;;;;;;;9.78;100.00;100783.25;5074374;28;20040;-71
2022/04/05 08:40:20;;;;;;;10.70;4.55;;;;;;;9.89;100.00;100780.81;5074361;28;20048;-72
2022/04/05 08:42:51;;;;;;;9.75;4.30;;;;;;;9.86;100.00;100776.41;5074289;28;20090;-71
2022/04/05 08:45:20;;;;;;;12.65;5.00;;;;;;;9.89;100.00;100773.81;5073467;28;20044;-71
2022/04/05 08:47:51;;;;;;;10.77;4.53;;;;;;;9.93;100.00;100788.72;5073334;28;20091;-71
2022/04/05 08:50:23;;;;;;;13.05;4.97;;;;;;;9.99;100.00;100780.97;5073818;28;20093;-72
2022/04/05 08:52:51;;;;;;;9.43;4.93;;;;;;;9.98;100.00;100779.19;5073326;28;20080;-72
2022/04/05 08:55:19;;;;;;;14.27;4.68;;;;;;;10.04;100.00;100781.03;5073238;28;20056;-75
2022/04/05 08:57:48;;;;;;;11.00;4.60;;;;;;;10.14;100.00;100782.94;5073575;28;20118;-75
2022/04/05 09:00:21;;;;;;;10.85;4.55;;;;;;;10.15;100.00;100792.56;5073606;28;20067;-72
2022/04/05 09:02:55;;;;;;;11.95;4.30;;;;;;;10.14;100.00;100789.03;5073176;28;20040;-72
2022/04/05 09:05:31;;;;;;;10.05;4.50;;;;;;;10.13;100.00;100794.28;5073809;28;20060;-72
2022/04/05 09:08:21;;;;;;;9.50;4.22;;;;;;;10.12;100.00;100789.88;5073106;28;20048;-73
2022/04/05 09:10:52;;;;;;;11.35;4.88;;;;;;;10.08;100.00;100782.84;5073476;28;20090;-71
2022/04/05 09:13:25;;;;;;;12.13;4.38;;;;;;;10.03;100.00;100793.25;5072885;28;20123;-69
2022/04/05 09:15:59;;;;;;;11.88;4.53;;;;;;;10.04;100.00;100792.41;5072750;28;20056;-73
2022/04/05 09:18:35;;;;;;;12.02;4.35;;;;;;;10.07;100.00;100794.19;5073051;28;20080;-71
2022/04/05 09:21:04;;;;;;;11.07;4.40;;;;;;;10.09;100.00;100789.84;5073238;28;20056;-69
2022/04/05 09:23:34;;;;;;;10.75;4.22;;;;;;;10.14;100.00;100796.91;5072901;28;20060;-70
2022/04/05 09:26:04;;;;;;;12.38;4.40;;;;;;;10.20;100.00;100796.16;5072970;28;20511;-73
2022/04/05 09:28:35;;;;;;;15.70;4.97;;;;;;;10.23;100.00;100798.81;5072902;28;20044;-73
2022/04/05 09:31:06;;;;;;;11.57;4.13;;;;;;;10.24;100.00;100797.97;5072951;28;20056;-73
2022/04/05 09:33:36;;;;;;;21.48;5.30;;;;;;;10.28;100.00;100805.00;5072401;28;20056;-73
2022/04/05 09:36:14;;;;;;;11.70;4.63;;;;;;;10.26;100.00;100800.59;5072208;28;20136;-72
2022/04/05 09:38:45;;;;;;;13.00;5.03;;;;;;;10.46;100.00;100806.97;5072666;28;20128;-73
2022/04/05 09:41:20;;;;;;;10.60;4.00;;;;;;;10.52;100.00;100809.66;5072448;28;20114;-74
2022/04/05 09:43:53;;;;;;;9.65;3.95;;;;;;;10.53;100.00;100800.94;5072555;28;20052;-74
2022/04/05 09:46:23;;;;;;;8.00;3.97;;;;;;;10.54;100.00;100813.19;5072258;28;20098;-74
2022/04/05 09:49:11;;;;;;;11.05;4.80;;;;;;;10.55;100.00;100814.06;5072340;28;20412;-74
2022/04/05 09:51:44;;;;;;;12.48;3.83;;;;;;;10.56;100.00;100813.22;5072085;28;20453;-74
2022/04/05 09:54:22;;;;;;;16.20;5.13;;;;;;;10.57;100.00;100817.59;5072270;28;20098;-72
2022/04/05 09:56:50;;;;;;;10.32;3.85;;;;;;;10.50;100.00;100816.63;5072193;28;20040;-72
2022/04/05 09:59:22;;;;;;;7.85;4.00;;;;;;;10.50;100.00;100811.38;5072214;28;20124;-75
2022/04/05 10:01:56;;;;;;;10.80;4.45;;;;;;;10.55;100.00;100814.06;5072017;28;20123;-74
2022/04/05 10:04:24;;;;;;;12.23;5.05;;;;;;;10.54;100.00;100818.44;5072243;28;20044;-74
2022/04/05 10:06:54;;;;;;;11.88;4.43;;;;;;;10.55;100.00;100809.69;5071922;28;20048;-74
2022/04/05 10:09:22;;;;;;;11.73;4.40;;;;;;;10.55;100.00;100812.31;5071913;28;20052;-74
2022/04/05 10:11:50;;;;;;;11.40;4.90;;;;;;;10.63;100.00;100808.06;5072355;28;20044;-76
2022/04/05 10:14:20;;;;;;;10.68;3.88;;;;;;;10.62;100.00;100810.66;5071564;28;20060;-73
2022/04/05 10:16:56;;;;;;;13.05;4.80;;;;;;;10.72;100.00;100808.16;5071860;28;20048;-73
2022/04/05 10:19:25;;;;;;;10.68;4.45;;;;;;;10.73;100.00;100817.81;5071712;28;20051;-73
2022/04/05 10:21:56;;;;;;;9.90;4.82;;;;;;;10.86;100.00;100804.84;5071733;28;20124;-73
2022/04/05 10:24:24;;;;;;;12.10;4.93;;;;;;;11.03;100.00;100800.66;5071849;28;20044;-72
2022/04/05 10:26:54;;;;;;;13.27;4.68;;;;;;;11.19;100.00;100805.19;5071517;28;20484;-73
2022/04/05 10:29:23;;;;;;;12.07;5.10;;;;;;;11.37;100.00;100810.63;5071903;28;20040;-72
2022/04/05 10:32:05;;;;;;;14.10;5.88;;;;;;;11.30;100.00;100807.94;5071807;28;20506;-74
2022/04/05 10:34:41;;;;;;;11.15;5.07;;;;;;;11.14;100.00;100810.41;5072015;28;20048;-72
2022/04/05 10:37:12;;;;;;;11.75;5.07;;;;;;;11.01;100.00;100803.25;5071483;28;20052;-72
2022/04/05 10:39:40;;;;;;;12.90;4.88;;;;;;;11.16;100.00;100815.66;5071712;28;20040;-72
2022/04/05 10:42:20;;;;;;;12.43;5.25;;;;;;;11.19;100.00;100799.06;5071402;28;20457;-74
2022/04/05 10:44:52;;;;;;;12.05;5.25;;;;;;;11.24;100.00;100806.13;5071342;28;20086;-74
2022/04/05 10:47:22;;;;;;;9.65;5.22;;;;;;;11.08;100.00;100806.84;5071025;28;20036;-74
2022/04/05 10:50:18;;;;;;;11.45;5.47;;;;;;;10.97;100.00;100803.22;5071260;28;20077;-74
2022/04/05 10:52:48;;;;;;;12.23;6.32;;;;;;;10.91;100.00;100806.66;5071650;28;20085;-73
2022/04/05 10:55:20;;;;;;;11.02;5.57;;;;;;;11.06;100.00;100812.06;5071584;28;20048;-74
2022/04/05 10:57:48;;;;;;;11.65;6.28;;;;;;;11.09;100.00;100813.84;5071325;28;20041;-73
2022/04/05 11:00:25;;;;;;;14.13;5.85;;;;;;;11.14;99.87;100806.91;5071426;28;20041;-74
2022/04/05 11:03:06;;;;;;;11.35;5.43;;;;;;;11.18;99.84;100806.06;5071211;28;20211;-74
2022/04/05 11:05:41;;;;;;;12.50;5.15;;;;;;;11.30;99.74;100807.94;5071576;28;20084;-74
2022/04/05 11:08:14;;;;;;;15.55;5.85;;;;;;;11.25;99.68;100799.13;5071657;28;20049;-74
2022/04/05 11:11:09;;;;;;;13.00;6.35;;;;;;;11.35;99.44;100801.84;5071188;28;20128;-74
2022/04/05 11:13:42;;;;;;;10.32;5.30;;;;;;;11.43;99.55;100805.44;5071575;28;20056;-73
2022/04/05 11:16:13;;;;;;;12.20;5.75;;;;;;;11.56;99.73;100800.25;5071232;28;20048;-73
2022/04/05 11:18:45;;;;;;;13.27;5.22;;;;;;;11.59;98.92;100795.03;5071082;28;20515;-73
2022/04/05 11:21:13;;;;;;;12.15;5.65;;;;;;;11.53;98.85;100787.09;5071492;28;20106;-72
2022/04/05 11:23:47;;;;;;;10.75;5.30;;;;;;;11.63;99.79;100796.81;5071617;28;20114;-73
2022/04/05 11:26:32;;;;;;;14.00;5.80;;;;;;;11.81;99.11;100798.75;5071191;28;20448;-73